sensor_id;sensor_type;location;lat;lon;timestamp;pressure;altitude;pressure_sealevel;temperature;humidity
2184;BME280;1098;48.940;8.962;2023-02-18T00:02:01;99392.25;;;14.13;100.00
2184;BME280;1098;48.940;8.962;2023-02-18T00:04:30;99384.78;;;13.90;100.00
2184;BME280;1098;48.940;8.962;2023-02-18T00:06:58;99391.09;;;14.20;100.00
2184;BME280;1098;48.940;8.962;2023-02-18T00:09:27;99389.47;;;14.01;100.00
2184;BME280;1098;48.940;8.962;2023-02-18T00:11:55;99382.56;;;14.17;100.00
2184;BME280;1098;48.940;8.962;2023-02-18T00:14:23;99380.19;;;13.90;100.00
2184;BME280;1098;48.940;8.962;2023-02-18T00:16:53;99378.97;;;13.86;100.00
2184;BME280;1098;48.940;8.962;2023-02-18T00:19:21;99372.94;;;14.02;100.00
2184;BME280;1098;48.940;8.962;2023-02-18T00:21:50;99377.91;;;13.87;100.00
2184;BME280;1098;48.940;8.962;2023-02-18T00:24:20;99383.50;;;13.92;100.00
2184;BME280;1098;48.940;8.962;2023-02-18T00:26:50;99385.75;;;14.14;100.00
2184;BME280;1098;48.940;8.962;2023-02-18T00:29:19;99367.88;;;14.06;100.00
2184;BME280;1098;48.940;8.962;2023-02-18T00:31:47;99358.47;;;14.20;100.00
2184;BME280;1098;48.940;8.962;2023-02-18T00:34:17;99362.03;;;14.21;100.00
2184;BME280;1098;48.940;8.962;2023-02-18T00:36:45;99361.88;;;14.16;100.00
2184;BME280;1098;48.940;8.962;2023-02-18T00:39:14;99365.78;;;14.38;100.00
2184;BME280;1098;48.940;8.962;2023-02-18T00:41:43;99367.13;;;13.99;100.00
2184;BME280;1098;48.940;8.962;2023-02-18T00:44:11;99359.66;;;14.13;100.00
2184;BME280;1098;48.940;8.962;2023-02-18T00:46:40;99359.31;;;14.21;100.00
2184;BME280;1098;48.940;8.962;2023-02-18T00:49:08;99360.16;;;14.03;100.00
2184;BME280;1098;48.940;8.962;2023-02-18T00:51:39;99362.78;;;14.46;100.00
2184;BME280;1098;48.940;8.962;2023-02-18T00:54:08;99353.53;;;13.99;100.00
2184;BME280;1098;48.940;8.962;2023-02-18T00:56:36;99378.28;;;14.27;100.00
2184;BME280;1098;48.940;8.962;2023-02-18T00:59:05;99377.53;;;14.02;100.00
2184;BME280;1098;48.940;8.962;2023-02-18T01:01:33;99376.38;;;14.28;100.00
2184;BME280;1098;48.940;8.962;2023-02-18T01:04:02;99373.13;;;14.19;100.00
2184;BME280;1098;48.940;8.962;2023-02-18T01:06:31;99374.88;;;14.32;100.00
2184;BME280;1098;48.940;8.962;2023-02-18T01:09:03;99370.03;;;14.34;100.00
2184;BME280;1098;48.940;8.962;2023-02-18T01:11:32;99366.56;;;14.27;100.00
2184;BME280;1098;48.940;8.962;2023-02-18T01:14:01;99372.88;;;14.39;100.00
2184;BME280;1098;48.940;8.962;2023-02-18T01:16:30;99366.97;;;14.12;100.00
2184;BME280;1098;48.940;8.962;2023-02-18T01:18:58;99366.34;;;14.28;100.00
2184;BME280;1098;48.940;8.962;2023-02-18T01:21:27;99359.31;;;14.21;100.00
2184;BME280;1098;48.940;8.962;2023-02-18T01:23:55;99366.25;;;14.17;100.00
2184;BME280;1098;48.940;8.962;2023-02-18T01:26:25;99368.59;;;14.31;100.00
2184;BME280;1098;48.940;8.962;2023-02-18T01:28:53;99371.69;;;14.17;100.00
2184;BME280;1098;48.940;8.962;2023-02-18T01:31:22;99371.69;;;14.17;100.00
2184;BME280;1098;48.940;8.962;2023-02-18T01:33:50;99373.97;;;14.20;100.00
2184;BME280;1098;48.940;8.962;2023-02-18T01:36:19;99373.50;;;14.23;100.00
2184;BME280;1098;48.940;8.962;2023-02-18T01:38:48;99370.28;;;14.62;100.00
2184;BME280;1098;48.940;8.962;2023-02-18T01:41:16;99364.34;;;14.35;100.00
2184;BME280;1098;48.940;8.962;2023-02-18T01:43:46;99365.28;;;14.29;100.00
2184;BME280;1098;48.940;8.962;2023-02-18T01:46:16;99376.41;;;14.58;100.00
2184;BME280;1098;48.940;8.962;2023-02-18T01:48:48;99365.50;;;14.28;100.00
2184;BME280;1098;48.940;8.962;2023-02-18T01:51:19;99363.50;;;14.05;100.00
2184;BME280;1098;48.940;8.962;2023-02-18T01:53:51;99358.22;;;14.10;100.00
2184;BME280;1098;48.940;8.962;2023-02-18T01:56:22;99366.50;;;14.15;100.00
2184;BME280;1098;48.940;8.962;2023-02-18T01:58:56;99356.56;;;13.91;100.00
2184;BME280;1098;48.940;8.962;2023-02-18T02:01:26;99366.50;;;14.15;100.00
2184;BME280;1098;48.940;8.962;2023-02-18T02:03:56;99369.59;;;14.19;100.00
2184;BME280;1098;48.940;8.962;2023-02-18T02:06:25;99374.28;;;14.12;100.00
2184;BME280;1098;48.940;8.962;2023-02-18T02:08:56;99370.50;;;14.31;100.00
2184;BME280;1098;48.940;8.962;2023-02-18T02:14:24;99362.38;;;14.13;100.00
2184;BME280;1098;48.940;8.962;2023-02-18T02:16:58;99350.28;;;14.08;100.00
2184;BME280;1098;48.940;8.962;2023-02-18T02:19:38;99353.66;;;14.22;100.00
2184;BME280;1098;48.940;8.962;2023-02-18T02:25:09;99344.88;;;13.90;100.00
2184;BME280;1098;48.940;8.962;2023-02-18T02:27:47;99348.41;;;14.09;100.00
2184;BME280;1098;48.940;8.962;2023-02-18T02:33:08;99345.41;;;14.47;100.00
2184;BME280;1098;48.940;8.962;2023-02-18T02:35:43;99342.22;;;14.50;100.00
2184;BME280;1098;48.940;8.962;2023-02-18T02:38:14;99345.50;;;14.22;100.00
2184;BME280;1098;48.940;8.962;2023-02-18T02:40:49;99335.69;;;14.21;100.00
2184;BME280;1098;48.940;8.962;2023-02-18T02:43:20;99348.06;;;14.17;100.00
2184;BME280;1098;48.940;8.962;2023-02-18T02:45:54;99342.59;;;14.35;100.00
2184;BME280;1098;48.940;8.962;2023-02-18T02:48:27;99342.16;;;14.68;100.00
2184;BME280;1098;48.940;8.962;2023-02-18T02:51:02;99337.97;;;14.06;100.00
2184;BME280;1098;48.940;8.962;2023-02-18T02:53:34;99333.59;;;14.05;100.00
2184;BME280;1098;48.940;8.962;2023-02-18T02:56:02;99325.72;;;14.15;100.00
2184;BME280;1098;48.940;8.962;2023-02-18T02:58:33;99333.34;;;14.25;100.00
2184;BME280;1098;48.940;8.962;2023-02-18T03:01:14;99330.81;;;14.12;100.00
2184;BME280;1098;48.940;8.962;2023-02-18T03:04:00;99325.78;;;14.27;100.00
2184;BME280;1098;48.940;8.962;2023-02-18T03:06:57;99317.34;;;14.17;100.00
2184;BME280;1098;48.940;8.962;2023-02-18T03:09:37;99315.28;;;14.30;100.00
2184;BME280;1098;48.940;8.962;2023-02-18T03:12:15;99317.94;;;14.19;100.00
2184;BME280;1098;48.940;8.962;2023-02-18T03:14:52;99307.91;;;14.19;100.00
2184;BME280;1098;48.940;8.962;2023-02-18T03:17:30;99307.25;;;14.35;100.00
2184;BME280;1098;48.940;8.962;2023-02-18T03:20:06;99308.84;;;14.13;100.00
2184;BME280;1098;48.940;8.962;2023-02-18T03:22:39;99306.34;;;14.12;100.00
2184;BME280;1098;48.940;8.962;2023-02-18T03:25:09;99303.81;;;13.80;100.00
2184;BME280;1098;48.940;8.962;2023-02-18T03:27:42;99300.75;;;14.06;100.00
2184;BME280;1098;48.940;8.962;2023-02-18T03:30:15;99292.16;;;14.09;100.00
2184;BME280;1098;48.940;8.962;2023-02-18T03:32:47;99296.88;;;13.84;100.00
2184;BME280;1098;48.940;8.962;2023-02-18T03:35:17;99275.50;;;14.18;100.00
2184;BME280;1098;48.940;8.962;2023-02-18T03:37:51;99302.47;;;14.19;100.00
2184;BME280;1098;48.940;8.962;2023-02-18T03:40:21;99305.34;;;14.36;100.00
2184;BME280;1098;48.940;8.962;2023-02-18T03:42:50;99315.03;;;14.02;100.00
2184;BME280;1098;48.940;8.962;2023-02-18T03:45:18;99325.00;;;14.08;100.00
2184;BME280;1098;48.940;8.962;2023-02-18T03:47:47;99310.56;;;14.07;100.00
2184;BME280;1098;48.940;8.962;2023-02-18T03:50:15;99317.97;;;14.00;100.00
2184;BME280;1098;48.940;8.962;2023-02-18T03:52:44;99310.00;;;14.17;100.00
2184;BME280;1098;48.940;8.962;2023-02-18T03:55:14;99318.88;;;14.13;100.00
2184;BME280;1098;48.940;8.962;2023-02-18T03:57:42;99310.78;;;14.36;100.00
2184;BME280;1098;48.940;8.962;2023-02-18T04:00:11;99308.38;;;14.46;100.00
2184;BME280;1098;48.940;8.962;2023-02-18T04:02:40;99293.72;;;14.17;100.00
2184;BME280;1098;48.940;8.962;2023-02-18T04:05:09;99294.66;;;13.93;100.00
2184;BME280;1098;48.940;8.962;2023-02-18T04:07:37;99289.56;;;14.15;100.00
2184;BME280;1098;48.940;8.962;2023-02-18T04:10:06;99276.09;;;14.20;100.00
2184;BME280;1098;48.940;8.962;2023-02-18T04:12:36;99278.50;;;14.28;100.00
2184;BME280;1098;48.940;8.962;2023-02-18T04:15:05;99275.19;;;13.96;100.00
2184;BME280;1098;48.940;8.962;2023-02-18T04:17:33;99278.88;;;14.31;100.00
2184;BME280;1098;48.940;8.962;2023-02-18T04:20:02;99278.13;;;14.24;100.00
2184;BME280;1098;48.940;8.962;2023-02-18T04:22:31;99275.75;;;14.16;100.00
2184;BME280;1098;48.940;8.962;2023-02-18T04:25:02;99282.53;;;14.37;100.00
2184;BME280;1098;48.940;8.962;2023-02-18T04:27:30;99277.06;;;14.55;100.00
2184;BME280;1098;48.940;8.962;2023-02-18T04:30:00;99282.59;;;14.19;100.00
2184;BME280;1098;48.940;8.962;2023-02-18T04:32:28;99277.44;;;14.59;100.00
2184;BME280;1098;48.940;8.962;2023-02-18T04:34:57;99275.50;;;14.18;100.00
2184;BME280;1098;48.940;8.962;2023-02-18T04:37:25;99279.75;;;14.43;100.00
2184;BME280;1098;48.940;8.962;2023-02-18T04:39:53;99284.78;;;14.28;100.00
2184;BME280;1098;48.940;8.962;2023-02-18T04:42:22;99267.50;;;14.64;100.00
2184;BME280;1098;48.940;8.962;2023-02-18T04:44:50;99273.25;;;14.15;100.00
2184;BME280;1098;48.940;8.962;2023-02-18T04:47:20;99271.66;;;14.25;100.00
2184;BME280;1098;48.940;8.962;2023-02-18T04:49:48;99270.19;;;14.41;100.00
2184;BME280;1098;48.940;8.962;2023-02-18T04:52:17;99276.13;;;14.50;100.00
2184;BME280;1098;48.940;8.962;2023-02-18T04:54:45;99272.56;;;14.19;100.00
2184;BME280;1098;48.940;8.962;2023-02-18T04:57:14;99275.66;;;14.23;100.00
2184;BME280;1098;48.940;8.962;2023-02-18T04:59:42;99269.41;;;14.52;100.00
2184;BME280;1098;48.940;8.962;2023-02-18T05:02:11;99271.00;;;14.41;100.00
2184;BME280;1098;48.940;8.962;2023-02-18T05:04:40;99281.44;;;14.44;100.00
2184;BME280;1098;48.940;8.962;2023-02-18T05:07:09;99289.97;;;14.60;100.00
2184;BME280;1098;48.940;8.962;2023-02-18T05:09:37;99282.31;;;14.38;100.00
2184;BME280;1098;48.940;8.962;2023-02-18T05:12:06;99284.94;;;14.15;100.00
2184;BME280;1098;48.940;8.962;2023-02-18T05:14:34;99268.56;;;14.22;100.00
2184;BME280;1098;48.940;8.962;2023-02-18T05:17:02;99265.59;;;14.23;100.00
2184;BME280;1098;48.940;8.962;2023-02-18T05:19:31;99261.72;;;13.89;100.00
2184;BME280;1098;48.940;8.962;2023-02-18T05:22:00;99265.53;;;14.30;100.00
2184;BME280;1098;48.940;8.962;2023-02-18T05:24:29;99267.31;;;14.06;100.00
2184;BME280;1098;48.940;8.962;2023-02-18T05:26:57;99254.13;;;14.09;100.00
2184;BME280;1098;48.940;8.962;2023-02-18T05:29:25;99255.28;;;14.14;100.00
2184;BME280;1098;48.940;8.962;2023-02-18T05:31:54;99251.66;;;14.61;100.00
2184;BME280;1098;48.940;8.962;2023-02-18T05:34:22;99246.22;;;14.20;100.00
2184;BME280;1098;48.940;8.962;2023-02-18T05:36:50;99253.81;;;13.99;100.00
2184;BME280;1098;48.940;8.962;2023-02-18T05:39:20;99249.41;;;14.47;100.00
2184;BME280;1098;48.940;8.962;2023-02-18T05:41:49;99253.44;;;14.26;100.00
2184;BME280;1098;48.940;8.962;2023-02-18T05:44:17;99248.19;;;14.42;100.00
2184;BME280;1098;48.940;8.962;2023-02-18T05:46:58;99247.09;;;14.32;100.00
2184;BME280;1098;48.940;8.962;2023-02-18T05:49:27;99243.56;;;14.01;100.00
2184;BME280;1098;48.940;8.962;2023-02-18T05:51:55;99253.63;;;14.42;100.00
2184;BME280;1098;48.940;8.962;2023-02-18T05:54:25;99247.38;;;14.12;100.00
2184;BME280;1098;48.940;8.962;2023-02-18T05:56:56;99256.63;;;14.23;100.00
2184;BME280;1098;48.940;8.962;2023-02-18T05:59:27;99258.75;;;14.21;100.00
2184;BME280;1098;48.940;8.962;2023-02-18T06:01:56;99257.00;;;14.38;100.00
2184;BME280;1098;48.940;8.962;2023-02-18T06:04:25;99256.75;;;14.28;100.00
2184;BME280;1098;48.940;8.962;2023-02-18T06:06:55;99265.88;;;14.33;100.00
2184;BME280;1098;48.940;8.962;2023-02-18T06:09:25;99255.63;;;14.05;100.00
2184;BME280;1098;48.940;8.962;2023-02-18T06:11:54;99251.22;;;14.34;100.00
2184;BME280;1098;48.940;8.962;2023-02-18T06:14:22;99243.94;;;14.17;100.00
2184;BME280;1098;48.940;8.962;2023-02-18T06:16:51;99247.03;;;14.50;100.00
2184;BME280;1098;48.940;8.962;2023-02-18T06:19:19;99251.16;;;14.41;100.00
2184;BME280;1098;48.940;8.962;2023-02-18T06:21:47;99259.34;;;14.53;100.00
2184;BME280;1098;48.940;8.962;2023-02-18T06:24:16;99245.84;;;14.46;100.00
2184;BME280;1098;48.940;8.962;2023-02-18T06:26:45;99249.16;;;14.60;100.00
2184;BME280;1098;48.940;8.962;2023-02-18T06:29:14;99257.50;;;14.88;100.00
2184;BME280;1098;48.940;8.962;2023-02-18T06:31:42;99251.78;;;14.55;100.00
2184;BME280;1098;48.940;8.962;2023-02-18T06:34:11;99254.53;;;14.90;100.00
2184;BME280;1098;48.940;8.962;2023-02-18T06:36:42;99261.34;;;14.57;100.00
2184;BME280;1098;48.940;8.962;2023-02-18T06:39:10;99267.50;;;14.53;100.00
2184;BME280;1098;48.940;8.962;2023-02-18T06:41:39;99268.19;;;14.48;100.00
2184;BME280;1098;48.940;8.962;2023-02-18T06:44:11;99270.78;;;14.43;100.00
2184;BME280;1098;48.940;8.962;2023-02-18T06:46:41;99259.81;;;14.61;100.00
2184;BME280;1098;48.940;8.962;2023-02-18T06:49:09;99259.44;;;14.46;100.00
2184;BME280;1098;48.940;8.962;2023-02-18T06:51:38;99257.72;;;14.87;100.00
2184;BME280;1098;48.940;8.962;2023-02-18T06:54:06;99267.31;;;15.01;100.00
2184;BME280;1098;48.940;8.962;2023-02-18T06:56:34;99254.50;;;14.78;100.00
2184;BME280;1098;48.940;8.962;2023-02-18T06:59:03;99243.97;;;14.47;100.00
2184;BME280;1098;48.940;8.962;2023-02-18T07:01:33;99254.19;;;14.74;100.00
2184;BME280;1098;48.940;8.962;2023-02-18T07:04:01;99255.69;;;14.82;100.00
2184;BME280;1098;48.940;8.962;2023-02-18T07:06:29;99248.09;;;14.61;100.00
2184;BME280;1098;48.940;8.962;2023-02-18T07:08:58;99252.50;;;14.85;100.00
2184;BME280;1098;48.940;8.962;2023-02-18T07:11:28;99250.41;;;14.75;100.00
2184;BME280;1098;48.940;8.962;2023-02-18T07:13:57;99246.66;;;14.47;100.00
2184;BME280;1098;48.940;8.962;2023-02-18T07:16:25;99238.31;;;14.83;100.00
2184;BME280;1098;48.940;8.962;2023-02-18T07:18:55;99234.88;;;14.53;100.00
2184;BME280;1098;48.940;8.962;2023-02-18T07:21:23;99234.66;;;14.89;100.00
2184;BME280;1098;48.940;8.962;2023-02-18T07:23:52;99231.38;;;14.34;100.00
2184;BME280;1098;48.940;8.962;2023-02-18T07:26:22;99214.19;;;14.63;100.00
2184;BME280;1098;48.940;8.962;2023-02-18T07:28:51;99223.75;;;14.54;100.00
2184;BME280;1098;48.940;8.962;2023-02-18T07:31:19;99222.22;;;14.82;100.00
2184;BME280;1098;48.940;8.962;2023-02-18T07:33:50;99217.59;;;14.82;100.00
2184;BME280;1098;48.940;8.962;2023-02-18T07:36:20;99222.69;;;15.02;100.00
2184;BME280;1098;48.940;8.962;2023-02-18T07:38:48;99217.03;;;14.92;100.00
2184;BME280;1098;48.940;8.962;2023-02-18T07:41:18;99222.94;;;15.12;100.00
2184;BME280;1098;48.940;8.962;2023-02-18T07:43:47;99219.22;;;15.30;100.00
2184;BME280;1098;48.940;8.962;2023-02-18T07:46:16;99210.75;;;14.79;100.00
2184;BME280;1098;48.940;8.962;2023-02-18T07:48:45;99219.72;;;15.27;100.00
2184;BME280;1098;48.940;8.962;2023-02-18T07:51:13;99210.97;;;14.78;100.00
2184;BME280;1098;48.940;8.962;2023-02-18T07:53:43;99218.44;;;15.06;100.00
2184;BME280;1098;48.940;8.962;2023-02-18T07:56:11;99227.44;;;15.06;100.00
2184;BME280;1098;48.940;8.962;2023-02-18T07:58:39;99225.88;;;14.99;100.00
2184;BME280;1098;48.940;8.962;2023-02-18T08:01:10;99213.84;;;14.71;100.00
2184;BME280;1098;48.940;8.962;2023-02-18T08:03:39;99218.78;;;14.51;100.00
2184;BME280;1098;48.940;8.962;2023-02-18T08:06:19;99214.88;;;14.82;100.00
2184;BME280;1098;48.940;8.962;2023-02-18T08:08:49;99231.47;;;15.16;100.00
2184;BME280;1098;48.940;8.962;2023-02-18T08:11:20;99221.75;;;15.08;100.00
2184;BME280;1098;48.940;8.962;2023-02-18T08:13:49;99214.53;;;15.13;100.00
2184;BME280;1098;48.940;8.962;2023-02-18T08:16:18;99219.38;;;15.00;100.00
2184;BME280;1098;48.940;8.962;2023-02-18T08:18:48;99206.63;;;14.89;100.00
2184;BME280;1098;48.940;8.962;2023-02-18T08:21:18;99224.69;;;15.30;100.00
2184;BME280;1098;48.940;8.962;2023-02-18T08:23:47;99222.09;;;15.00;100.00
2184;BME280;1098;48.940;8.962;2023-02-18T08:26:20;99218.31;;;15.01;100.00
2184;BME280;1098;48.940;8.962;2023-02-18T08:28:48;99203.16;;;15.05;100.00
2184;BME280;1098;48.940;8.962;2023-02-18T08:31:18;99222.66;;;15.25;100.00
2184;BME280;1098;48.940;8.962;2023-02-18T08:33:47;99210.34;;;15.34;100.00
2184;BME280;1098;48.940;8.962;2023-02-18T08:36:18;99212.16;;;15.05;100.00
2184;BME280;1098;48.940;8.962;2023-02-18T08:38:47;99200.44;;;15.05;100.00
2184;BME280;1098;48.940;8.962;2023-02-18T08:41:15;99199.63;;;15.16;100.00
2184;BME280;1098;48.940;8.962;2023-02-18T08:43:46;99197.97;;;15.15;100.00
2184;BME280;1098;48.940;8.962;2023-02-18T08:46:16;99204.56;;;15.19;100.00
2184;BME280;1098;48.940;8.962;2023-02-18T08:48:59;99196.25;;;15.37;100.00
2184;BME280;1098;48.940;8.962;2023-02-18T08:51:28;99200.84;;;15.48;100.00
2184;BME280;1098;48.940;8.962;2023-02-18T08:53:57;99191.88;;;15.36;100.00
2184;BME280;1098;48.940;8.962;2023-02-18T08:56:26;99191.28;;;15.34;100.00
2184;BME280;1098;48.940;8.962;2023-02-18T08:58:56;99192.78;;;15.54;100.00
2184;BME280;1098;48.940;8.962;2023-02-18T09:01:25;99199.53;;;15.39;100.00
2184;BME280;1098;48.940;8.962;2023-02-18T09:03:53;99179.78;;;15.56;100.00
2184;BME280;1098;48.940;8.962;2023-02-18T09:06:24;99167.56;;;16.03;100.00
2184;BME280;1098;48.940;8.962;2023-02-18T09:08:53;99179.22;;;15.30;100.00
2184;BME280;1098;48.940;8.962;2023-02-18T09:11:22;99181.44;;;15.57;100.00
2184;BME280;1098;48.940;8.962;2023-02-18T09:13:50;99184.59;;;15.65;100.00
2184;BME280;1098;48.940;8.962;2023-02-18T09:16:20;99171.13;;;15.59;100.00
2184;BME280;1098;48.940;8.962;2023-02-18T09:18:55;99169.84;;;15.78;100.00
2184;BME280;1098;48.940;8.962;2023-02-18T09:21:27;99172.53;;;15.50;100.00
2184;BME280;1098;48.940;8.962;2023-02-18T09:23:56;99179.59;;;15.22;100.00
2184;BME280;1098;48.940;8.962;2023-02-18T09:26:25;99183.78;;;15.41;100.00
2184;BME280;1098;48.940;8.962;2023-02-18T09:28:55;99181.34;;;15.28;100.00
2184;BME280;1098;48.940;8.962;2023-02-18T09:31:26;99174.75;;;15.64;100.00
2184;BME280;1098;48.940;8.962;2023-02-18T09:33:56;99181.41;;;15.45;100.00
2184;BME280;1098;48.940;8.962;2023-02-18T09:36:26;99175.31;;;15.78;100.00
2184;BME280;1098;48.940;8.962;2023-02-18T09:38:54;99187.63;;;15.29;100.00
2184;BME280;1098;48.940;8.962;2023-02-18T09:41:30;99171.41;;;15.22;100.00
2184;BME280;1098;48.940;8.962;2023-02-18T09:44:15;99179.63;;;15.51;100.00
2184;BME280;1098;48.940;8.962;2023-02-18T09:46:51;99173.00;;;15.46;100.00
2184;BME280;1098;48.940;8.962;2023-02-18T09:49:23;99193.44;;;15.32;100.00
2184;BME280;1098;48.940;8.962;2023-02-18T09:51:53;99179.38;;;15.64;100.00
2184;BME280;1098;48.940;8.962;2023-02-18T09:54:22;99181.66;;;15.43;100.00
2184;BME280;1098;48.940;8.962;2023-02-18T09:56:51;99177.63;;;15.58;100.00
2184;BME280;1098;48.940;8.962;2023-02-18T09:59:21;99180.88;;;15.31;100.00
2184;BME280;1098;48.940;8.962;2023-02-18T10:01:53;99184.19;;;15.33;100.00
2184;BME280;1098;48.940;8.962;2023-02-18T10:04:23;99186.25;;;15.55;100.00
2184;BME280;1098;48.940;8.962;2023-02-18T10:06:55;99178.66;;;15.17;100.00
2184;BME280;1098;48.940;8.962;2023-02-18T10:09:24;99180.56;;;15.04;100.00
2184;BME280;1098;48.940;8.962;2023-02-18T10:11:55;99183.91;;;15.46;100.00
2184;BME280;1098;48.940;8.962;2023-02-18T10:14:24;99178.75;;;15.33;100.00
2184;BME280;1098;48.940;8.962;2023-02-18T10:16:54;99180.47;;;15.39;100.00
2184;BME280;1098;48.940;8.962;2023-02-18T10:19:24;99197.41;;;15.41;100.00
2184;BME280;1098;48.940;8.962;2023-02-18T10:21:55;99185.03;;;15.34;100.00
2184;BME280;1098;48.940;8.962;2023-02-18T10:24:28;99185.44;;;15.54;100.00
2184;BME280;1098;48.940;8.962;2023-02-18T10:26:56;99176.28;;;15.72;100.00
2184;BME280;1098;48.940;8.962;2023-02-18T10:29:25;99179.41;;;15.52;100.00
2184;BME280;1098;48.940;8.962;2023-02-18T10:31:56;99193.59;;;15.54;100.00
2184;BME280;1098;48.940;8.962;2023-02-18T10:34:29;99181.91;;;15.42;100.00
2184;BME280;1098;48.940;8.962;2023-02-18T10:37:06;99177.50;;;15.53;100.00
2184;BME280;1098;48.940;8.962;2023-02-18T10:39:39;99194.22;;;15.44;100.00
2184;BME280;1098;48.940;8.962;2023-02-18T10:42:14;99183.28;;;15.68;100.00
2184;BME280;1098;48.940;8.962;2023-02-18T10:44:49;99176.22;;;15.43;100.00
2184;BME280;1098;48.940;8.962;2023-02-18T10:47:23;99171.84;;;15.42;100.00
2184;BME280;1098;48.940;8.962;2023-02-18T10:49:57;99170.34;;;15.75;100.00
2184;BME280;1098;48.940;8.962;2023-02-18T10:52:27;99172.28;;;15.63;100.00
2184;BME280;1098;48.940;8.962;2023-02-18T10:54:57;99175.78;;;15.23;100.00
2184;BME280;1098;48.940;8.962;2023-02-18T10:57:29;99162.88;;;15.30;100.00
2184;BME280;1098;48.940;8.962;2023-02-18T11:00:00;99172.22;;;15.34;100.00
2184;BME280;1098;48.940;8.962;2023-02-18T11:02:41;99173.50;;;15.43;100.00
2184;BME280;1098;48.940;8.962;2023-02-18T11:05:18;99159.97;;;15.08;100.00
2184;BME280;1098;48.940;8.962;2023-02-18T11:07:47;99167.09;;;15.50;100.00
2184;BME280;1098;48.940;8.962;2023-02-18T11:10:17;99164.34;;;15.50;100.00
2184;BME280;1098;48.940;8.962;2023-02-18T11:12:48;99150.63;;;15.16;100.00
2184;BME280;1098;48.940;8.962;2023-02-18T11:15:18;99166.72;;;15.46;100.00
2184;BME280;1098;48.940;8.962;2023-02-18T11:17:49;99156.38;;;15.31;100.00
2184;BME280;1098;48.940;8.962;2023-02-18T11:20:20;99156.19;;;15.09;100.00
2184;BME280;1098;48.940;8.962;2023-02-18T11:22:48;99172.16;;;15.06;100.00
2184;BME280;1098;48.940;8.962;2023-02-18T11:25:20;99164.50;;;15.43;100.00
2184;BME280;1098;48.940;8.962;2023-02-18T11:27:50;99160.31;;;15.12;100.00
2184;BME280;1098;48.940;8.962;2023-02-18T11:30:20;99165.41;;;15.08;100.00
2184;BME280;1098;48.940;8.962;2023-02-18T11:32:51;99151.69;;;15.15;100.00
2184;BME280;1098;48.940;8.962;2023-02-18T11:35:21;99161.00;;;15.31;100.00
2184;BME280;1098;48.940;8.962;2023-02-18T11:37:50;99155.25;;;15.16;100.00
2184;BME280;1098;48.940;8.962;2023-02-18T11:40:19;99149.56;;;15.45;100.00
2184;BME280;1098;48.940;8.962;2023-02-18T11:42:48;99134.63;;;15.48;100.00
2184;BME280;1098;48.940;8.962;2023-02-18T11:48:07;99143.09;;;15.35;100.00
2184;BME280;1098;48.940;8.962;2023-02-18T11:50:36;99146.00;;;15.17;100.00
2184;BME280;1098;48.940;8.962;2023-02-18T11:53:26;99143.63;;;15.08;100.00
2184;BME280;1098;48.940;8.962;2023-02-18T11:55:57;99141.97;;;15.07;100.00
2184;BME280;1098;48.940;8.962;2023-02-18T11:58:31;99152.00;;;15.30;100.00
2184;BME280;1098;48.940;8.962;2023-02-18T12:01:02;99143.19;;;15.00;100.00
2184;BME280;1098;48.940;8.962;2023-02-18T12:03:40;99139.09;;;15.26;100.00
2184;BME280;1098;48.940;8.962;2023-02-18T12:06:14;99119.19;;;15.37;100.00
2184;BME280;1098;48.940;8.962;2023-02-18T12:08:48;99137.44;;;15.25;100.00
2184;BME280;1098;48.940;8.962;2023-02-18T12:11:25;99136.44;;;15.02;100.00
2184;BME280;1098;48.940;8.962;2023-02-18T12:13:56;99134.28;;;15.16;100.00
2184;BME280;1098;48.940;8.962;2023-02-18T12:16:33;99127.59;;;14.95;100.00
2184;BME280;1098;48.940;8.962;2023-02-18T12:19:17;99124.53;;;15.20;100.00
2184;BME280;1098;48.940;8.962;2023-02-18T12:21:52;99130.75;;;15.04;100.00
2184;BME280;1098;48.940;8.962;2023-02-18T12:24:34;99117.78;;;14.83;100.00
2184;BME280;1098;48.940;8.962;2023-02-18T12:27:14;99137.44;;;14.73;100.00
2184;BME280;1098;48.940;8.962;2023-02-18T12:30:07;99122.75;;;14.74;100.00
2184;BME280;1098;48.940;8.962;2023-02-18T12:32:45;99128.78;;;15.28;100.00
2184;BME280;1098;48.940;8.962;2023-02-18T12:35:36;99112.75;;;15.43;100.00
2184;BME280;1098;48.940;8.962;2023-02-18T12:41:15;99109.19;;;15.14;100.00
2184;BME280;1098;48.940;8.962;2023-02-18T12:43:54;99090.31;;;14.96;100.00
2184;BME280;1098;48.940;8.962;2023-02-18T12:46:39;99105.81;;;15.35;100.00
2184;BME280;1098;48.940;8.962;2023-02-18T12:49:29;99097.63;;;15.35;100.00
2184;BME280;1098;48.940;8.962;2023-02-18T12:52:17;99105.63;;;15.54;100.00
2184;BME280;1098;48.940;8.962;2023-02-18T12:55:20;99109.59;;;14.94;100.00
2184;BME280;1098;48.940;8.962;2023-02-18T12:57:56;99098.81;;;14.99;100.00
2184;BME280;1098;48.940;8.962;2023-02-18T13:00:38;99096.94;;;14.76;100.00
2184;BME280;1098;48.940;8.962;2023-02-18T13:03:26;99103.56;;;14.92;100.00
2184;BME280;1098;48.940;8.962;2023-02-18T13:06:00;99104.72;;;15.08;100.00
2184;BME280;1098;48.940;8.962;2023-02-18T13:08:35;99103.28;;;15.17;100.00
2184;BME280;1098;48.940;8.962;2023-02-18T13:11:10;99087.19;;;15.04;100.00
2184;BME280;1098;48.940;8.962;2023-02-18T13:13:44;99097.44;;;14.85;100.00
2184;BME280;1098;48.940;8.962;2023-02-18T13:16:15;99086.78;;;15.24;100.00
2184;BME280;1098;48.940;8.962;2023-02-18T13:18:52;99087.50;;;15.19;100.00
2184;BME280;1098;48.940;8.962;2023-02-18T13:21:22;99071.22;;;15.64;100.00
2184;BME280;1098;48.940;8.962;2023-02-18T13:23:54;99080.47;;;15.35;100.00
2184;BME280;1098;48.940;8.962;2023-02-18T13:26:24;99069.53;;;15.46;100.00
2184;BME280;1098;48.940;8.962;2023-02-18T13:29:07;99065.66;;;15.14;100.00
2184;BME280;1098;48.940;8.962;2023-02-18T13:31:45;99069.22;;;15.03;100.00
2184;BME280;1098;48.940;8.962;2023-02-18T13:34:23;99059.88;;;14.99;100.00
2184;BME280;1098;48.940;8.962;2023-02-18T13:37:01;99063.81;;;15.20;100.00
2184;BME280;1098;48.940;8.962;2023-02-18T13:39:32;99066.13;;;15.11;100.00
2184;BME280;1098;48.940;8.962;2023-02-18T13:42:23;99055.50;;;15.38;100.00
2184;BME280;1098;48.940;8.962;2023-02-18T13:47:50;99048.03;;;15.33;100.00
2184;BME280;1098;48.940;8.962;2023-02-18T13:50:32;99054.34;;;15.51;100.00